Time;durP1;ratioP1;P1;durP2;ratioP2;P2;SDS_P1;SDS_P2;PMS_P1;PMS_P2;Temp;Humidity;BMP_temperature;BMP_pressure;BME280_temperature;BME280_humidity;BME280_pressure;Samples;Min_cycle;Max_cycle;Signal;HPM_P1;HPM_P2
2024/01/13 00:01:20;;;;;;;65.77;32.37;;;-2.70;99.90;;;;;;5117153;28;20561;-41
2024/01/13 00:03:45;;;;;;;62.47;32.90;;;-2.70;99.90;;;;;;5116956;28;20214;-41
2024/01/13 00:06:11;;;;;;;66.40;31.70;;;-2.70;99.90;;;;;;5116313;28;20425;-44
2024/01/13 00:08:36;;;;;;;58.63;32.20;;;-2.60;99.90;;;;;;5117279;28;20176;-43
2024/01/13 00:11:02;;;;;;;61.80;32.90;;;-2.60;99.90;;;;;;5117491;28;20469;-42
2024/01/13 00:13:28;;;;;;;65.40;33.60;;;-2.50;99.90;;;;;;5117611;28;20576;-44
2024/01/13 00:15:53;;;;;;;73.73;37.37;;;-2.50;99.90;;;;;;5117987;28;20580;-40
2024/01/13 00:18:19;;;;;;;61.30;33.97;;;-2.50;99.90;;;;;;5116351;28;20242;-45
2024/01/13 00:20:45;;;;;;;63.43;32.67;;;-2.40;99.90;;;;;;5118174;28;20264;-42
2024/01/13 00:23:10;;;;;;;62.23;33.37;;;-2.40;99.90;;;;;;5117024;28;20457;-45
2024/01/13 00:25:36;;;;;;;66.33;33.30;;;-2.40;99.90;;;;;;5117204;28;20549;-44
2024/01/13 00:28:01;;;;;;;64.17;32.73;;;-2.40;99.90;;;;;;5117954;28;20171;-41
2024/01/13 00:30:27;;;;;;;63.07;33.10;;;-2.40;99.90;;;;;;5118225;28;20218;-42
2024/01/13 00:32:53;;;;;;;59.40;33.10;;;-2.50;99.90;;;;;;5116501;28;20265;-41
2024/01/13 00:35:18;;;;;;;62.83;33.03;;;-2.50;99.90;;;;;;5117867;28;20321;-42
2024/01/13 00:37:44;;;;;;;67.97;33.80;;;-2.50;99.90;;;;;;5117207;28;20615;-42
2024/01/13 00:40:12;;;;;;;67.63;33.23;;;-2.50;99.90;;;;;;5118443;28;20233;-42
2024/01/13 00:42:38;;;;;;;61.40;31.27;;;-2.60;92.80;;;;;;5117221;28;20481;-41
2024/01/13 00:45:04;;;;;;;65.97;35.10;;;-2.60;99.90;;;;;;5117589;28;20417;-41
2024/01/13 00:47:31;;;;;;;60.33;31.40;;;-2.70;99.90;;;;;;5116631;28;20520;-42
2024/01/13 00:49:56;;;;;;;67.73;32.83;;;-2.70;99.90;;;;;;5116712;28;20454;-43
2024/01/13 00:52:22;;;;;;;64.80;32.93;;;-2.90;99.90;;;;;;5117652;28;20417;-42
2024/01/13 00:54:48;;;;;;;59.17;31.90;;;-2.80;99.90;;;;;;5116398;28;20476;-44
2024/01/13 00:57:13;;;;;;;64.10;32.57;;;-2.90;99.90;;;;;;5116402;28;20522;-44
2024/01/13 00:59:39;;;;;;;67.67;30.87;;;-2.90;99.90;;;;;;5114478;28;20269;-44
2024/01/13 01:02:04;;;;;;;69.43;31.47;;;-3.00;99.90;;;;;;5115528;28;20214;-41
2024/01/13 01:04:30;;;;;;;62.90;30.83;;;-3.00;99.90;;;;;;5116251;28;20203;-41
2024/01/13 01:06:55;;;;;;;79.67;31.67;;;-3.10;99.90;;;;;;5115834;28;20240;-42
2024/01/13 01:09:21;;;;;;;66.10;32.47;;;-3.10;99.90;;;;;;5116837;28;20179;-42
2024/01/13 01:11:46;;;;;;;64.03;31.27;;;-3.10;99.90;;;;;;5117104;28;20168;-41
2024/01/13 01:14:12;;;;;;;59.87;30.80;;;-3.10;99.90;;;;;;5116361;28;20184;-42
2024/01/13 01:16:38;;;;;;;56.97;28.33;;;-3.20;99.90;;;;;;5116331;28;20692;-43
2024/01/13 01:19:04;;;;;;;70.50;33.57;;;-3.20;99.90;;;;;;5115982;28;20219;-41
2024/01/13 01:21:29;;;;;;;75.20;32.10;;;-3.40;1.00;;;;;;5116672;28;20561;-42
2024/01/13 01:23:54;;;;;;;68.23;33.37;;;-3.40;1.00;;;;;;5116157;28;20207;-42
2024/01/13 01:26:20;;;;;;;65.47;34.17;;;-3.40;1.00;;;;;;5116819;28;20237;-42
2024/01/13 01:28:45;;;;;;;64.20;31.20;;;-3.30;1.00;;;;;;5117125;28;20241;-41
2024/01/13 01:31:12;;;;;;;70.77;33.77;;;-3.20;1.00;;;;;;5117009;28;20508;-43
2024/01/13 01:33:38;;;;;;;76.90;34.60;;;-3.20;1.00;;;;;;5116207;28;20188;-42
2024/01/13 01:36:04;;;;;;;68.97;34.10;;;-3.10;1.00;;;;;;5116896;28;20831;-44
2024/01/13 01:38:29;;;;;;;69.40;35.27;;;-3.10;1.00;;;;;;5116099;28;20252;-44
2024/01/13 01:40:55;;;;;;;64.00;32.70;;;-3.10;1.00;;;;;;5116209;28;20263;-42
2024/01/13 01:43:21;;;;;;;73.70;34.77;;;-3.00;1.00;;;;;;5115751;28;20246;-41
2024/01/13 01:45:56;;;;;;;70.90;36.27;;;-3.00;1.00;;;;;;5115669;28;20232;-42
2024/01/13 01:48:31;;;;;;;67.03;34.17;;;-3.00;99.90;;;;;;5116048;28;20432;-41
2024/01/13 01:50:57;;;;;;;71.80;35.80;;;-3.10;99.90;;;;;;5115174;28;20424;-42
2024/01/13 01:53:22;;;;;;;76.13;35.67;;;-3.10;99.90;;;;;;5117207;28;20432;-41
2024/01/13 01:55:48;;;;;;;70.57;35.10;;;-3.10;99.90;;;;;;5116605;28;20214;-41
2024/01/13 01:58:14;;;;;;;67.00;35.33;;;-3.00;99.90;;;;;;5116781;28;20244;-43
2024/01/13 02:00:39;;;;;;;70.77;33.83;;;-3.00;1.00;;;;;;5117074;28;20257;-42
2024/01/13 02:03:05;;;;;;;73.83;37.30;;;-3.00;99.90;;;;;;5116297;28;20200;-42
2024/01/13 02:05:31;;;;;;;71.40;35.13;;;-3.00;99.90;;;;;;5119595;28;20176;-44
2024/01/13 02:07:57;;;;;;;73.40;36.57;;;-3.00;99.90;;;;;;5121095;28;20168;-45
2024/01/13 02:10:22;;;;;;;68.10;34.37;;;-3.00;1.00;;;;;;5120850;28;20421;-45
2024/01/13 02:12:48;;;;;;;71.73;36.90;;;-2.90;1.00;;;;;;5120319;28;20198;-42
2024/01/13 02:15:14;;;;;;;75.10;36.30;;;-2.80;1.00;;;;;;5119978;28;20183;-44
2024/01/13 02:17:39;;;;;;;69.43;34.47;;;-2.80;99.90;;;;;;5119116;28;20520;-43
2024/01/13 02:20:07;;;;;;;63.73;34.07;;;-2.90;99.90;;;;;;5120187;28;20557;-43
2024/01/13 02:22:33;;;;;;;73.83;34.37;;;-2.90;99.90;;;;;;5118546;28;20239;-44
2024/01/13 02:25:02;;;;;;;76.63;37.60;;;-3.00;99.90;;;;;;5120076;28;20568;-42
2024/01/13 02:27:28;;;;;;;72.93;35.27;;;-3.00;99.90;;;;;;5118989;28;20304;-45
2024/01/13 02:29:54;;;;;;;74.57;36.90;;;-3.00;99.90;;;;;;5118119;28;20541;-46
2024/01/13 02:32:20;;;;;;;78.43;35.60;;;-2.90;99.90;;;;;;5120166;28;20176;-42
2024/01/13 02:34:46;;;;;;;83.37;38.67;;;-2.90;99.90;;;;;;5120338;28;20513;-41
2024/01/13 02:37:11;;;;;;;74.13;35.47;;;-2.90;99.90;;;;;;5119722;28;20194;-44
2024/01/13 02:39:37;;;;;;;77.03;36.53;;;-3.00;99.90;;;;;;5119779;28;20206;-43
2024/01/13 02:42:03;;;;;;;81.03;38.87;;;-3.10;99.90;;;;;;5119691;28;20211;-43
2024/01/13 02:44:29;;;;;;;80.13;37.10;;;-3.20;99.90;;;;;;5119892;28;20601;-42
2024/01/13 02:46:54;;;;;;;85.07;36.93;;;-3.20;99.90;;;;;;5119778;28;20443;-42
2024/01/13 02:49:20;;;;;;;83.80;38.40;;;-3.30;99.90;;;;;;5120079;27;20168;-42
2024/01/13 02:51:46;;;;;;;74.50;35.37;;;-3.30;99.90;;;;;;5120360;28;20571;-42
2024/01/13 02:54:11;;;;;;;76.73;33.83;;;-3.30;1.00;;;;;;5119610;28;20195;-44
2024/01/13 02:56:37;;;;;;;81.60;38.47;;;-3.20;99.90;;;;;;5119910;27;20565;-44
2024/01/13 02:59:02;;;;;;;80.53;37.10;;;-3.30;99.90;;;;;;5119376;28;20179;-42
2024/01/13 03:01:30;;;;;;;71.03;34.67;;;-3.40;99.90;;;;;;5101541;28;20180;-42
2024/01/13 03:03:56;;;;;;;85.10;34.53;;;-3.30;1.00;;;;;;5120299;28;20207;-43
2024/01/13 03:06:22;;;;;;;70.60;33.67;;;-3.30;1.00;;;;;;5119527;28;20751;-42
2024/01/13 03:08:48;;;;;;;69.90;36.07;;;-3.30;1.00;;;;;;5118780;28;20190;-41
2024/01/13 03:11:13;;;;;;;71.90;34.03;;;-3.20;1.00;;;;;;5119860;28;20426;-43
2024/01/13 03:13:39;;;;;;;75.30;35.77;;;-3.10;1.00;;;;;;5118988;28;20176;-43
2024/01/13 03:19:28;;;;;;;71.93;34.90;;;-3.20;99.90;;;;;;5118073;28;20183;-42
2024/01/13 03:21:54;;;;;;;81.83;36.67;;;-3.20;99.90;;;;;;5116755;28;20538;-43
2024/01/13 03:24:19;;;;;;;85.80;38.50;;;-3.20;99.90;;;;;;5117152;28;20477;-43
2024/01/13 03:26:45;;;;;;;77.60;35.90;;;-3.20;99.90;;;;;;5117277;28;20288;-42
2024/01/13 03:29:10;;;;;;;80.50;38.70;;;-3.10;99.90;;;;;;5117904;28;20199;-45
2024/01/13 03:31:36;;;;;;;73.87;36.80;;;-3.10;99.90;;;;;;5117747;28;20176;-43
2024/01/13 03:34:01;;;;;;;77.40;34.97;;;-3.20;99.90;;;;;;5117764;28;20274;-43
2024/01/13 03:36:27;;;;;;;87.50;36.97;;;-3.20;99.90;;;;;;5117695;28;20249;-45
2024/01/13 03:38:52;;;;;;;53.73;22.13;;;-3.10;99.90;;;;;;5117604;28;20249;-47
2024/01/13 03:41:22;;;;;;;73.17;34.03;;;-2.90;1.00;;;;;;5117540;28;20310;-47
2024/01/13 03:43:48;;;;;;;88.33;41.33;;;-1.90;1.00;;;;;;5117466;28;20230;-42
2024/01/13 03:46:14;;;;;;;87.03;42.63;;;-0.90;1.00;;;;;;5118694;28;20737;-42
2024/01/13 03:48:40;;;;;;;75.53;40.80;;;-0.60;1.00;;;;;;5118636;28;20436;-40
2024/01/13 03:51:05;;;;;;;70.90;38.53;;;-0.90;1.00;;;;;;5118844;28;20565;-45
2024/01/13 03:53:32;;;;;;;73.03;38.27;;;-1.40;1.00;;;;;;5118988;28;20188;-42
2024/01/13 03:55:58;;;;;;;74.63;37.77;;;-1.70;1.00;;;;;;5118839;28;20179;-43
2024/01/13 03:58:23;;;;;;;70.07;37.93;;;-1.80;1.00;;;;;;5118601;28;20460;-47
2024/01/13 04:00:49;;;;;;;79.10;35.37;;;-2.10;1.00;;;;;;5118233;28;21012;-42
2024/01/13 04:03:14;;;;;;;66.23;33.67;;;-2.50;99.90;;;;;;5117716;28;20215;-42
2024/01/13 04:05:40;;;;;;;73.63;36.50;;;-2.70;1.00;;;;;;5118282;28;20187;-46
2024/01/13 04:08:06;;;;;;;71.43;34.73;;;-2.70;99.90;;;;;;5118086;28;20176;-43
2024/01/13 04:10:31;;;;;;;61.97;33.93;;;-2.70;99.90;;;;;;5118062;28;20569;-42
2024/01/13 04:12:57;;;;;;;62.00;33.73;;;-2.70;99.90;;;;;;5117827;28;20540;-43
2024/01/13 04:15:23;;;;;;;64.30;34.63;;;-2.70;99.90;;;;;;5117618;28;20183;-44
2024/01/13 04:17:48;;;;;;;64.13;34.90;;;-2.60;99.90;;;;;;5099885;28;20253;-43
2024/01/13 04:20:14;;;;;;;69.80;34.13;;;-2.70;99.90;;;;;;5117643;28;20225;-42
2024/01/13 04:22:39;;;;;;;69.37;36.53;;;-2.70;99.90;;;;;;5117312;28;20529;-42
2024/01/13 04:25:05;;;;;;;84.37;35.50;;;-2.70;99.90;;;;;;5117146;28;20176;-41
2024/01/13 04:27:31;;;;;;;62.20;32.87;;;-2.70;99.90;;;;;;5117491;28;20184;-40
2024/01/13 04:29:56;;;;;;;70.30;33.80;;;-2.80;99.90;;;;;;5116476;28;20525;-43
2024/01/13 04:32:22;;;;;;;65.10;32.20;;;-2.80;99.90;;;;;;5117815;28;20529;-44
2024/01/13 04:34:48;;;;;;;66.30;33.80;;;-2.80;99.90;;;;;;5117830;28;20511;-42
2024/01/13 04:37:14;;;;;;;68.70;32.77;;;-2.90;99.90;;;;;;5117550;28;20562;-44
2024/01/13 04:39:39;;;;;;;59.37;31.50;;;-2.80;99.90;;;;;;5115929;28;20440;-42
2024/01/13 04:42:05;;;;;;;63.50;35.33;;;-2.90;99.90;;;;;;5116199;28;20203;-41
2024/01/13 04:44:30;;;;;;;100.93;32.37;;;-2.90;99.90;;;;;;5116211;28;20525;-41
2024/01/13 04:46:56;;;;;;;73.67;30.30;;;-2.90;99.90;;;;;;5116235;28;20180;-42
2024/01/13 04:49:21;;;;;;;59.07;29.60;;;-3.00;99.90;;;;;;5116697;28;20183;-42
2024/01/13 04:51:47;;;;;;;71.57;32.97;;;-3.20;99.90;;;;;;5116716;28;20192;-43
2024/01/13 04:54:12;;;;;;;63.30;35.17;;;-3.20;99.90;;;;;;5116660;28;20191;-41
2024/01/13 04:56:38;;;;;;;66.53;33.40;;;-3.20;99.90;;;;;;5117178;28;20164;-44
2024/01/13 04:59:03;;;;;;;77.70;36.00;;;-3.10;1.00;;;;;;5117637;28;20222;-43
2024/01/13 05:01:29;;;;;;;74.23;34.93;;;-3.10;1.00;;;;;;5117346;28;20236;-41
2024/01/13 05:03:55;;;;;;;78.30;36.00;;;-3.10;1.00;;;;;;5116969;28;20283;-41
2024/01/13 05:06:20;;;;;;;71.83;33.30;;;-3.00;1.00;;;;;;5117081;28;20241;-45
2024/01/13 05:08:46;;;;;;;78.67;36.87;;;-3.00;1.00;;;;;;5115845;28;20447;-45
2024/01/13 05:11:11;;;;;;;66.63;32.20;;;-2.90;1.00;;;;;;5116601;28;20175;-42
2024/01/13 05:13:37;;;;;;;87.50;35.63;;;-2.90;1.00;;;;;;5116591;28;20187;-44
2024/01/13 05:16:03;;;;;;;72.03;36.80;;;-2.90;1.00;;;;;;5117024;28;20529;-42
2024/01/13 05:18:28;;;;;;;65.83;32.37;;;-3.10;1.00;;;;;;5116922;28;20195;-42
2024/01/13 05:20:54;;;;;;;62.00;32.97;;;-3.10;1.00;;;;;;5115915;28;20265;-45
2024/01/13 05:23:19;;;;;;;72.47;34.30;;;-3.30;99.90;;;;;;5115583;28;20218;-42
2024/01/13 05:25:45;;;;;;;77.03;35.03;;;-3.30;1.00;;;;;;5115230;28;20231;-43
2024/01/13 05:28:10;;;;;;;73.47;32.60;;;-3.30;1.00;;;;;;5115338;28;20272;-43
2024/01/13 05:30:36;;;;;;;68.63;32.00;;;-3.20;1.00;;;;;;5115037;28;20231;-43
2024/01/13 05:33:02;;;;;;;76.23;33.07;;;-3.20;1.00;;;;;;5114551;28;20187;-42
2024/01/13 05:35:27;;;;;;;71.37;31.93;;;-3.20;1.00;;;;;;5115769;28;20475;-46
2024/01/13 05:37:53;;;;;;;64.73;31.60;;;-3.40;1.00;;;;;;5115029;28;20203;-42
2024/01/13 05:40:22;;;;;;;94.07;34.43;;;-3.50;1.00;;;;;;5117893;28;20196;-41
2024/01/13 05:42:47;;;;;;;71.63;32.97;;;-3.40;1.00;;;;;;5119978;28;20301;-42
2024/01/13 05:45:13;;;;;;;76.73;32.30;;;-3.50;1.00;;;;;;5120859;28;20535;-43
2024/01/13 05:47:38;;;;;;;76.93;34.90;;;-3.50;1.00;;;;;;5120477;28;20260;-42
2024/01/13 05:50:05;;;;;;;88.97;33.77;;;-3.60;1.00;;;;;;5119631;28;20536;-42
2024/01/13 05:52:30;;;;;;;73.70;34.83;;;-3.60;1.00;;;;;;5120324;28;20238;-44
2024/01/13 05:54:56;;;;;;;77.80;35.67;;;-3.70;1.00;;;;;;5120970;28;20780;-43
2024/01/13 05:57:22;;;;;;;71.00;33.30;;;-3.70;1.00;;;;;;5120481;28;20199;-42
2024/01/13 05:59:47;;;;;;;74.27;34.50;;;-3.90;1.00;;;;;;5120804;28;20478;-45
2024/01/13 06:02:13;;;;;;;75.10;35.87;;;-3.90;1.00;;;;;;5119683;28;20216;-42
2024/01/13 06:04:39;;;;;;;72.47;32.70;;;-3.80;1.00;;;;;;5119724;28;20203;-46
2024/01/13 06:07:05;;;;;;;68.60;34.40;;;-3.70;1.00;;;;;;5120101;28;20482;-41
2024/01/13 06:09:31;;;;;;;71.40;34.70;;;-3.50;1.00;;;;;;5118676;28;20180;-40
2024/01/13 06:11:57;;;;;;;70.50;34.60;;;-3.60;1.00;;;;;;5118947;28;20733;-42
2024/01/13 06:14:22;;;;;;;68.77;32.70;;;-3.70;1.00;;;;;;5117673;28;20462;-41
2024/01/13 06:16:48;;;;;;;54.67;28.60;;;-3.70;1.00;;;;;;5119523;28;20187;-41
2024/01/13 06:19:14;;;;;;;70.93;33.70;;;-3.80;1.00;;;;;;5118624;28;20209;-40
2024/01/13 06:21:45;;;;;;;73.07;33.30;;;-3.80;1.00;;;;;;5119650;28;20180;-41
2024/01/13 06:24:11;;;;;;;60.30;31.33;;;-3.90;1.00;;;;;;5119653;28;20256;-41
2024/01/13 06:26:41;;;;;;;62.67;32.23;;;-3.80;1.00;;;;;;5119577;28;20539;-42
2024/01/13 06:29:07;;;;;;;65.00;31.87;;;-3.70;1.00;;;;;;5118947;28;20505;-42
2024/01/13 06:31:33;;;;;;;74.33;33.07;;;-3.80;1.00;;;;;;5118038;28;20560;-45
2024/01/13 06:33:58;;;;;;;62.07;32.60;;;-3.80;1.00;;;;;;5118213;28;20579;-39
2024/01/13 06:36:24;;;;;;;67.43;29.97;;;-3.90;1.00;;;;;;5118054;28;20631;-42
2024/01/13 06:38:50;;;;;;;60.87;30.90;;;-3.90;1.00;;;;;;5117490;28;20583;-40
2024/01/13 06:41:16;;;;;;;64.50;32.03;;;-3.90;1.00;;;;;;5118895;28;20292;-43
2024/01/13 06:43:41;;;;;;;57.70;29.43;;;-4.00;1.00;;;;;;5117872;28;20601;-44
2024/01/13 06:46:07;;;;;;;60.53;29.20;;;-4.10;1.00;;;;;;5117863;28;20589;-42
2024/01/13 06:48:33;;;;;;;62.40;32.00;;;-4.10;1.00;;;;;;5118554;28;20431;-43
2024/01/13 06:50:58;;;;;;;55.63;29.50;;;-4.20;1.00;;;;;;5117966;28;20421;-41
2024/01/13 06:53:24;;;;;;;65.63;31.10;;;-4.10;1.00;;;;;;5118857;28;20167;-42
2024/01/13 06:55:52;;;;;;;63.53;31.60;;;-4.00;1.00;;;;;;5117047;28;20393;-42
2024/01/13 06:58:18;;;;;;;69.67;33.30;;;-3.90;1.00;;;;;;5116756;28;20276;-41
2024/01/13 07:00:43;;;;;;;74.30;32.77;;;-3.90;1.00;;;;;;5116226;28;20430;-41
2024/01/13 07:03:09;;;;;;;64.97;32.30;;;-3.90;1.00;;;;;;5117478;28;20488;-42
2024/01/13 07:05:34;;;;;;;62.57;31.23;;;-3.90;1.00;;;;;;5117867;28;20562;-43
2024/01/13 07:08:00;;;;;;;58.03;27.60;;;-3.90;1.00;;;;;;5118491;28;20481;-40
2024/01/13 07:10:29;;;;;;;55.07;28.20;;;-3.90;1.00;;;;;;5118429;28;20263;-41
2024/01/13 07:12:55;;;;;;;60.33;27.43;;;-4.00;1.00;;;;;;5118208;28;20433;-42
2024/01/13 07:15:21;;;;;;;58.40;27.50;;;-4.10;1.00;;;;;;5118527;28;20651;-42
2024/01/13 07:17:46;;;;;;;64.33;30.90;;;-4.00;1.00;;;;;;5117772;28;20410;-42
2024/01/13 07:20:12;;;;;;;68.93;32.73;;;-4.00;1.00;;;;;;5117128;28;20247;-43
2024/01/13 07:22:38;;;;;;;67.17;30.37;;;-3.90;1.00;;;;;;5118806;28;20302;-42
2024/01/13 07:25:04;;;;;;;56.03;29.80;;;-3.80;1.00;;;;;;5117259;28;20260;-45
2024/01/13 07:27:30;;;;;;;57.80;27.70;;;-3.70;1.00;;;;;;5116651;28;20687;-41
2024/01/13 07:29:56;;;;;;;57.20;28.83;;;-3.70;1.00;;;;;;5117408;28;20690;-43
2024/01/13 07:32:21;;;;;;;62.83;31.97;;;-3.70;1.00;;;;;;5115685;28;20433;-41
2024/01/13 07:34:47;;;;;;;62.47;31.40;;;-3.70;1.00;;;;;;5115904;28;20183;-43
2024/01/13 07:37:12;;;;;;;58.77;28.77;;;-3.80;1.00;;;;;;5112614;28;20176;-42
2024/01/13 07:39:38;;;;;;;55.77;27.20;;;-3.80;1.00;;;;;;5114064;28;20189;-42
2024/01/13 07:42:04;;;;;;;53.60;27.63;;;-3.80;1.00;;;;;;5114733;28;20184;-43
2024/01/13 07:44:29;;;;;;;57.40;28.80;;;-3.90;1.00;;;;;;5114857;28;20180;-42
2024/01/13 07:47:00;;;;;;;57.10;27.87;;;-3.80;1.00;;;;;;5112481;28;20203;-43
2024/01/13 07:49:32;;;;;;;55.80;27.90;;;-3.90;1.00;;;;;;5112649;28;20491;-42
2024/01/13 07:51:58;;;;;;;71.40;29.67;;;-3.80;1.00;;;;;;5111376;28;20485;-41
2024/01/13 07:54:23;;;;;;;56.93;28.00;;;-3.80;1.00;;;;;;5112476;28;20820;-43
2024/01/13 07:56:49;;;;;;;60.77;29.03;;;-3.90;1.00;;;;;;5113644;28;20195;-42
2024/01/13 07:59:18;;;;;;;56.27;27.07;;;-3.80;1.00;;;;;;5114744;28;20258;-42
2024/01/13 08:01:44;;;;;;;53.60;25.57;;;-3.80;1.00;;;;;;5116907;28;20428;-45
2024/01/13 08:04:10;;;;;;;51.40;25.93;;;-3.80;1.00;;;;;;5116696;28;20587;-42
2024/01/13 08:06:36;;;;;;;57.40;26.27;;;-3.70;1.00;;;;;;5116009;28;20438;-41
2024/01/13 08:09:05;;;;;;;49.83;24.67;;;-3.70;1.00;;;;;;5117344;28;20164;-42
2024/01/13 08:11:31;;;;;;;49.57;25.10;;;-3.60;1.00;;;;;;5116601;28;20167;-40
2024/01/13 08:13:57;;;;;;;53.43;26.37;;;-3.60;1.00;;;;;;5115273;28;20690;-44
2024/01/13 08:16:22;;;;;;;45.00;24.33;;;-3.70;1.00;;;;;;5116631;28;20233;-41
2024/01/13 08:18:48;;;;;;;50.60;26.00;;;-3.60;1.00;;;;;;5116396;28;20213;-41
2024/01/13 08:21:13;;;;;;;46.37;22.87;;;-3.50;1.00;;;;;;5116495;28;20262;-41
2024/01/13 08:23:39;;;;;;;43.87;23.33;;;-3.50;1.00;;;;;;5117305;28;20229;-42
2024/01/13 08:26:05;;;;;;;45.90;22.60;;;-3.40;1.00;;;;;;5117638;28;20183;-41
2024/01/13 08:28:30;;;;;;;41.77;21.30;;;-3.40;99.90;;;;;;5118088;28;20175;-41
2024/01/13 08:30:56;;;;;;;33.23;17.33;;;-3.30;99.90;;;;;;5117900;28;20227;-41
2024/01/13 08:33:21;;;;;;;31.67;16.90;;;-3.30;99.90;;;;;;5116212;28;20211;-41
2024/01/13 08:35:47;;;;;;;37.30;18.50;;;-3.20;99.90;;;;;;5117817;28;20183;-43
2024/01/13 08:38:13;;;;;;;30.73;17.47;;;-3.20;99.90;;;;;;5117823;28;20180;-44
2024/01/13 08:40:39;;;;;;;28.73;16.40;;;-3.10;99.90;;;;;;5116973;28;20291;-43
2024/01/13 08:43:05;;;;;;;30.40;15.10;;;-3.10;99.90;;;;;;5115260;28;20565;-43
2024/01/13 08:45:30;;;;;;;30.60;16.03;;;-3.10;99.90;;;;;;5115520;28;20421;-42
2024/01/13 08:47:57;;;;;;;33.03;17.33;;;-3.10;99.90;;;;;;5112370;28;20338;-43
2024/01/13 08:50:23;;;;;;;30.60;16.67;;;-3.00;99.90;;;;;;5113328;28;20453;-42
2024/01/13 08:52:51;;;;;;;31.43;17.90;;;-3.00;99.90;;;;;;5094445;28;20440;-44
2024/01/13 08:55:18;;;;;;;30.27;17.90;;;-2.80;99.90;;;;;;5112878;28;20611;-42
2024/01/13 08:57:44;;;;;;;25.07;13.60;;;-2.70;99.90;;;;;;5111073;28;20464;-41
2024/01/13 09:00:10;;;;;;;19.97;12.13;;;-2.60;99.90;;;;;;5112063;28;20412;-40
2024/01/13 09:02:35;;;;;;;18.63;11.30;;;-2.70;99.90;;;;;;5114133;28;20304;-41
2024/01/13 09:05:01;;;;;;;19.57;11.40;;;-2.70;99.90;;;;;;5114295;28;20516;-41
2024/01/13 09:07:26;;;;;;;20.47;11.23;;;-2.60;99.90;;;;;;5114303;28;20207;-42
2024/01/13 09:09:52;;;;;;;19.77;10.20;;;-2.60;99.90;;;;;;5115005;28;20551;-43
2024/01/13 09:12:17;;;;;;;15.10;9.47;;;-2.70;99.90;;;;;;5113113;28;20206;-42
2024/01/13 09:14:45;;;;;;;19.00;11.50;;;-2.80;99.90;;;;;;5114506;28;20194;-43
2024/01/13 09:17:11;;;;;;;15.87;10.00;;;-2.70;99.90;;;;;;5115312;28;20210;-43
2024/01/13 09:19:37;;;;;;;19.80;10.87;;;-2.70;99.90;;;;;;5115424;28;20425;-41
2024/01/13 09:22:03;;;;;;;27.10;15.37;;;-2.60;99.90;;;;;;5115663;28;20421;-41
2024/01/13 09:24:28;;;;;;;19.03;11.50;;;-2.60;99.90;;;;;;5116626;28;20187;-42
2024/01/13 09:26:55;;;;;;;15.63;10.93;;;-2.50;99.90;;;;;;5116597;28;20215;-41
2024/01/13 09:29:21;;;;;;;17.33;11.10;;;-2.50;99.90;;;;;;5115821;28;20168;-41
2024/01/13 09:31:47;;;;;;;18.27;11.93;;;-2.50;99.90;;;;;;5116036;28;20480;-44
2024/01/13 09:34:14;;;;;;;20.90;11.07;;;-2.50;99.90;;;;;;5116046;28;20819;-43
2024/01/13 09:36:41;;;;;;;21.60;11.73;;;-2.50;99.90;;;;;;5115682;28;20835;-43
2024/01/13 09:39:11;;;;;;;21.67;12.03;;;-2.50;99.90;;;;;;5116395;28;20846;-42
2024/01/13 09:41:37;;;;;;;23.53;11.90;;;-2.70;99.90;;;;;;5115450;28;20804;-43
2024/01/13 09:44:23;;;;;;;23.80;14.30;;;-2.60;99.90;;;;;;5115449;28;20585;-42
2024/01/13 09:46:51;;;;;;;22.07;11.73;;;-2.50;99.90;;;;;;5114917;28;20898;-44
2024/01/13 09:49:18;;;;;;;22.17;11.23;;;-2.70;99.90;;;;;;5115359;28;20421;-41
2024/01/13 09:51:44;;;;;;;23.40;12.37;;;-2.50;99.90;;;;;;5116923;28;20417;-43
2024/01/13 09:54:12;;;;;;;22.20;11.33;;;-2.60;99.90;;;;;;5115814;28;20409;-42
2024/01/13 09:56:44;;;;;;;21.83;12.83;;;-2.60;99.90;;;;;;5115680;28;20449;-41
2024/01/13 09:59:11;;;;;;;28.60;14.27;;;-2.50;99.90;;;;;;5115217;28;20762;-41
2024/01/13 10:01:36;;;;;;;17.83;12.60;;;-2.40;99.90;;;;;;5115939;28;20433;-43
2024/01/13 10:04:02;;;;;;;25.07;14.73;;;-2.40;99.90;;;;;;5114871;28;20473;-44
2024/01/13 10:06:33;;;;;;;22.30;13.03;;;-2.30;99.90;;;;;;5113888;28;20229;-42
2024/01/13 10:08:59;;;;;;;27.70;13.87;;;-2.20;99.90;;;;;;5112317;28;20275;-43
2024/01/13 10:11:25;;;;;;;30.07;15.00;;;-2.20;99.90;;;;;;5114629;28;20899;-45
2024/01/13 10:14:12;;;;;;;24.80;15.20;;;-2.10;99.90;;;;;;5114066;28;20533;-41
2024/01/13 10:16:38;;;;;;;27.13;16.07;;;-2.10;99.90;;;;;;5111634;28;20191;-44
2024/01/13 10:19:05;;;;;;;26.37;15.30;;;-2.10;99.90;;;;;;5112911;28;20444;-41
2024/01/13 10:21:31;;;;;;;25.20;16.07;;;-2.20;95.10;;;;;;5112579;28;20194;-43
2024/01/13 10:23:58;;;;;;;30.60;14.30;;;-2.20;28.40;;;;;;5113640;28;20465;-41
2024/01/13 10:26:24;;;;;;;28.33;14.30;;;-2.20;99.90;;;;;;5115383;28;20495;-43
2024/01/13 10:28:50;;;;;;;27.30;14.87;;;-2.10;99.90;;;;;;5116192;28;20535;-44
2024/01/13 10:31:17;;;;;;;27.47;13.73;;;-2.10;99.90;;;;;;5115577;28;20473;-47
2024/01/13 10:33:47;;;;;;;22.73;13.47;;;-2.00;99.90;;;;;;5117017;28;20682;-42
2024/01/13 10:36:13;;;;;;;28.80;16.53;;;-1.90;99.90;;;;;;5118037;28;20457;-42
2024/01/13 10:38:42;;;;;;;21.33;13.90;;;-1.90;99.90;;;;;;5117460;28;20508;-41
2024/01/13 10:41:09;;;;;;;28.93;15.80;;;-1.80;99.90;;;;;;5117992;28;20512;-41
2024/01/13 10:43:38;;;;;;;19.83;12.27;;;-1.80;31.80;;;;;;5118762;27;20508;-42
2024/01/13 10:46:12;;;;;;;44.60;21.60;;;-1.80;99.90;;;;;;5118423;28;20508;-42
2024/01/13 10:48:46;;;;;;;55.47;27.70;;;-1.80;1.00;;;;;;5115034;28;20425;-41
2024/01/13 10:51:56;;;;;;;39.20;22.10;;;-1.80;52.90;;;;;;5119490;28;20445;-45
2024/01/13 10:54:25;;;;;;;23.10;15.50;;;-1.60;45.80;;;;;;5118338;28;20839;-44
2024/01/13 10:56:52;;;;;;;21.23;13.70;;;-1.50;1.00;;;;;;5116988;28;20867;-42
2024/01/13 10:59:17;;;;;;;16.30;10.73;;;-1.50;1.00;;;;;;5116318;28;20406;-43
2024/01/13 11:01:44;;;;;;;18.07;10.93;;;-1.70;1.00;;;;;;5116055;28;20850;-42
2024/01/13 11:04:10;;;;;;;19.57;12.60;;;-1.90;1.00;;;;;;5114826;28;20263;-43
2024/01/13 11:06:36;;;;;;;16.40;11.53;;;-2.00;1.00;;;;;;5118493;28;20436;-42
2024/01/13 11:09:02;;;;;;;15.90;10.77;;;-1.90;1.00;;;;;;5116682;28;20413;-41
2024/01/13 11:11:36;;;;;;;15.67;11.20;;;-1.90;1.00;;;;;;5117089;28;20365;-41
2024/01/13 11:14:14;;;;;;;21.10;13.67;;;-1.90;1.00;;;;;;5117920;28;20433;-42
2024/01/13 11:16:44;;;;;;;22.20;12.90;;;-2.00;1.00;;;;;;5116236;28;20482;-41
2024/01/13 11:19:10;;;;;;;21.33;14.50;;;-2.00;1.00;;;;;;5112891;28;20859;-42
2024/01/13 11:21:36;;;;;;;21.10;12.33;;;-1.90;1.00;;;;;;5116358;28;20561;-42
2024/01/13 11:24:10;;;;;;;21.30;12.43;;;-1.90;12.80;;;;;;5117145;28;20568;-41
2024/01/13 11:26:38;;;;;;;25.10;14.50;;;-1.80;1.00;;;;;;5117227;28;20178;-42
2024/01/13 11:29:24;;;;;;;23.70;13.10;;;-1.90;1.00;;;;;;5116733;28;20502;-43
2024/01/13 11:32:00;;;;;;;20.57;12.40;;;-1.80;1.00;;;;;;5115773;28;20482;-44
2024/01/13 11:34:28;;;;;;;23.23;12.70;;;-1.70;1.00;;;;;;5116116;28;20544;-42
2024/01/13 11:36:58;;;;;;;26.43;15.87;;;-1.70;1.00;;;;;;5114956;28;20421;-43
2024/01/13 11:39:24;;;;;;;26.40;16.87;;;-1.90;1.00;;;;;;5117724;28;20425;-43
2024/01/13 11:41:56;;;;;;;22.93;14.77;;;-1.90;10.50;;;;;;5117357;28;20470;-41
2024/01/13 11:44:36;;;;;;;21.00;13.30;;;-1.80;12.50;;;;;;5118890;28;20489;-41
2024/01/13 11:47:05;;;;;;;19.50;12.23;;;-1.60;1.00;;;;;;5118562;28;20980;-41
2024/01/13 11:49:40;;;;;;;21.80;13.37;;;-1.60;1.00;;;;;;5117305;28;20417;-42
2024/01/13 11:52:10;;;;;;;23.23;13.10;;;-1.50;99.90;;;;;;5115822;28;20443;-41
2024/01/13 11:54:38;;;;;;;22.37;13.63;;;-1.50;1.00;;;;;;5116793;28;20426;-47
2024/01/13 11:57:08;;;;;;;18.80;12.93;;;-1.40;1.00;;;;;;5116437;28;20402;-43
2024/01/13 11:59:34;;;;;;;19.47;11.80;;;-1.40;99.90;;;;;;5117342;28;20420;-42
2024/01/13 12:02:00;;;;;;;20.00;13.17;;;-1.40;99.90;;;;;;5115230;28;20429;-42
2024/01/13 12:04:30;;;;;;;23.33;15.37;;;-1.50;99.90;;;;;;5115967;28;20429;-41
2024/01/13 12:06:55;;;;;;;23.60;13.77;;;-1.60;99.90;;;;;;5117224;28;20454;-43
2024/01/13 12:09:26;;;;;;;25.23;15.27;;;-1.40;1.00;;;;;;5115874;28;20847;-41
2024/01/13 12:11:59;;;;;;;21.07;13.47;;;-1.40;1.00;;;;;;5118430;28;20166;-41
2024/01/13 12:14:26;;;;;;;22.23;14.23;;;-1.30;1.00;;;;;;5118559;28;20787;-40
2024/01/13 12:16:55;;;;;;;22.70;14.90;;;-1.30;99.90;;;;;;5117261;28;20460;-43
2024/01/13 12:19:23;;;;;;;20.83;14.80;;;-1.50;1.00;;;;;;5117615;28;20418;-40
2024/01/13 12:21:49;;;;;;;19.43;12.50;;;-1.50;1.00;;;;;;5114972;28;20765;-42
2024/01/13 12:24:15;;;;;;;22.70;13.37;;;-1.40;99.90;;;;;;5114964;28;20575;-40
2024/01/13 12:26:40;;;;;;;22.77;14.00;;;-1.30;99.90;;;;;;5112766;28;20462;-40
2024/01/13 12:29:08;;;;;;;24.63;14.70;;;-1.50;99.90;;;;;;5113250;28;20262;-43
2024/01/13 12:31:33;;;;;;;22.70;14.30;;;-1.80;99.90;;;;;;5111968;28;20179;-41